sensor_id;sensor_type;location;lat;lon;timestamp;pressure;altitude;pressure_sealevel;temperature;humidity
11017;BME280;54687;50.800;6.772;2023-04-03T00:02:24;61109.69;;;-144.06;53.05
11017;BME280;54687;50.800;6.772;2023-04-03T00:04:51;61139.03;;;-144.06;53.35
11017;BME280;54687;50.800;6.772;2023-04-03T00:07:17;61136.94;;;-144.06;52.68
11017;BME280;54687;50.800;6.772;2023-04-03T00:09:44;61128.53;;;-144.06;53.34
11017;BME280;54687;50.800;6.772;2023-04-03T00:12:10;61101.28;;;-144.06;52.88
11017;BME280;54687;50.800;6.772;2023-04-03T00:14:37;61149.50;;;-144.06;53.42
11017;BME280;54687;50.800;6.772;2023-04-03T00:17:03;61155.81;;;-144.06;53.05
11017;BME280;54687;50.800;6.772;2023-04-03T00:19:31;61132.75;;;-144.06;53.14
11017;BME280;54687;50.800;6.772;2023-04-03T00:21:58;61168.38;;;-144.06;53.39
11017;BME280;54687;50.800;6.772;2023-04-03T00:24:25;61143.22;;;-144.06;52.70
11017;BME280;54687;50.800;6.772;2023-04-03T00:26:51;61136.94;;;-144.06;52.64
11017;BME280;54687;50.800;6.772;2023-04-03T00:29:18;61157.91;;;-144.06;53.02
11017;BME280;54687;50.800;6.772;2023-04-03T00:31:44;61130.66;;;-144.06;53.05
11017;BME280;54687;50.800;6.772;2023-04-03T00:34:11;61126.44;;;-144.06;52.83
11017;BME280;54687;50.800;6.772;2023-04-03T00:36:39;61151.59;;;-144.06;52.61
11017;BME280;54687;50.800;6.772;2023-04-03T00:39:06;61160.00;;;-144.06;53.08
11017;BME280;54687;50.800;6.772;2023-04-03T00:41:32;61109.69;;;-144.06;52.88
11017;BME280;54687;50.800;6.772;2023-04-03T00:43:59;61105.50;;;-144.06;52.75
11017;BME280;54687;50.800;6.772;2023-04-03T00:46:25;61143.22;;;-144.06;52.62
11017;BME280;54687;50.800;6.772;2023-04-03T00:48:52;61118.06;;;-144.06;52.83
11017;BME280;54687;50.800;6.772;2023-04-03T00:51:23;61141.13;;;-144.06;52.80
11017;BME280;54687;50.800;6.772;2023-04-03T00:53:55;61151.59;;;-144.06;53.16
11017;BME280;54687;50.800;6.772;2023-04-03T00:56:26;61139.03;;;-144.06;53.12
11017;BME280;54687;50.800;6.772;2023-04-03T00:58:56;61160.00;;;-144.06;53.29
11017;BME280;54687;50.800;6.772;2023-04-03T01:01:27;61151.59;;;-144.06;53.51
11017;BME280;54687;50.800;6.772;2023-04-03T01:03:54;61120.16;;;-144.06;53.73
11017;BME280;54687;50.800;6.772;2023-04-03T01:06:24;61120.16;;;-144.06;53.82
11017;BME280;54687;50.800;6.772;2023-04-03T01:08:54;61172.56;;;-144.06;54.01
11017;BME280;54687;50.800;6.772;2023-04-03T01:11:21;61151.59;;;-144.06;53.61
11017;BME280;54687;50.800;6.772;2023-04-03T01:13:48;61164.19;;;-144.06;53.27
11017;BME280;54687;50.800;6.772;2023-04-03T01:16:15;61185.16;;;-144.06;53.51
11017;BME280;54687;50.800;6.772;2023-04-03T01:18:42;61155.81;;;-144.06;53.16
11017;BME280;54687;50.800;6.772;2023-04-03T01:24:21;61155.81;;;-144.06;53.00
11017;BME280;54687;50.800;6.772;2023-04-03T01:26:49;61074.03;;;-144.06;53.16
11017;BME280;54687;50.800;6.772;2023-04-03T01:29:16;61174.66;;;-144.06;53.37
11017;BME280;54687;50.800;6.772;2023-04-03T01:31:50;61155.81;;;-144.06;53.19
11017;BME280;54687;50.800;6.772;2023-04-03T01:34:17;61185.16;;;-144.06;52.88
11017;BME280;54687;50.800;6.772;2023-04-03T01:36:43;61139.03;;;-144.06;53.20
11017;BME280;54687;50.800;6.772;2023-04-03T01:39:10;61130.66;;;-144.06;53.20
11017;BME280;54687;50.800;6.772;2023-04-03T01:41:37;61122.25;;;-144.06;53.33
11017;BME280;54687;50.800;6.772;2023-04-03T01:44:04;61139.03;;;-144.06;53.31
11017;BME280;54687;50.800;6.772;2023-04-03T01:46:31;61139.03;;;-144.06;53.21
11017;BME280;54687;50.800;6.772;2023-04-03T01:48:59;61164.19;;;-144.06;53.18
11017;BME280;54687;50.800;6.772;2023-04-03T01:51:26;61109.69;;;-144.06;53.59
11017;BME280;54687;50.800;6.772;2023-04-03T01:53:52;61164.19;;;-144.06;53.44
11017;BME280;54687;50.800;6.772;2023-04-03T01:56:19;61164.19;;;-144.06;53.92
11017;BME280;54687;50.800;6.772;2023-04-03T01:58:46;61132.75;;;-144.06;53.75
11017;BME280;54687;50.800;6.772;2023-04-03T02:01:13;61149.50;;;-144.06;54.56
11017;BME280;54687;50.800;6.772;2023-04-03T02:03:40;61151.59;;;-144.06;54.64
11017;BME280;54687;50.800;6.772;2023-04-03T02:06:08;61187.25;;;-144.06;55.00
11017;BME280;54687;50.800;6.772;2023-04-03T02:08:35;61174.66;;;-144.06;55.03
11017;BME280;54687;50.800;6.772;2023-04-03T02:11:01;61147.41;;;-144.06;55.11
11017;BME280;54687;50.800;6.772;2023-04-03T02:13:28;61151.59;;;-144.06;55.53
11017;BME280;54687;50.800;6.772;2023-04-03T02:15:54;61155.81;;;-144.06;55.28
11017;BME280;54687;50.800;6.772;2023-04-03T02:18:21;61155.81;;;-144.06;55.23
11017;BME280;54687;50.800;6.772;2023-04-03T02:20:48;61191.44;;;-144.06;55.40
11017;BME280;54687;50.800;6.772;2023-04-03T02:23:15;61130.66;;;-144.06;55.68
11017;BME280;54687;50.800;6.772;2023-04-03T02:25:42;61164.19;;;-144.06;55.27
11017;BME280;54687;50.800;6.772;2023-04-03T02:28:09;61164.19;;;-144.06;55.21
11017;BME280;54687;50.800;6.772;2023-04-03T02:30:35;61139.03;;;-144.06;55.31
11017;BME280;54687;50.800;6.772;2023-04-03T02:33:02;61160.00;;;-144.06;55.36
11017;BME280;54687;50.800;6.772;2023-04-03T02:35:28;61124.34;;;-144.06;55.41
11017;BME280;54687;50.800;6.772;2023-04-03T02:37:55;61134.84;;;-144.06;55.42
11017;BME280;54687;50.800;6.772;2023-04-03T02:40:23;61185.16;;;-144.06;55.99
11017;BME280;54687;50.800;6.772;2023-04-03T02:42:49;61143.22;;;-144.06;55.75
11017;BME280;54687;50.800;6.772;2023-04-03T02:45:16;61172.56;;;-144.06;56.02
11017;BME280;54687;50.800;6.772;2023-04-03T02:47:42;61139.03;;;-144.06;56.09
11017;BME280;54687;50.800;6.772;2023-04-03T02:50:09;61176.75;;;-144.06;55.87
11017;BME280;54687;50.800;6.772;2023-04-03T02:52:36;61153.69;;;-144.06;56.65
11017;BME280;54687;50.800;6.772;2023-04-03T02:55:03;61122.25;;;-144.06;56.14
11017;BME280;54687;50.800;6.772;2023-04-03T02:57:31;61139.03;;;-144.06;56.53
11017;BME280;54687;50.800;6.772;2023-04-03T02:59:58;61160.00;;;-144.06;55.95
11017;BME280;54687;50.800;6.772;2023-04-03T03:02:25;61124.34;;;-144.06;55.94
11017;BME280;54687;50.800;6.772;2023-04-03T03:04:51;61149.50;;;-144.06;56.53
11017;BME280;54687;50.800;6.772;2023-04-03T03:07:18;61145.31;;;-144.06;56.12
11017;BME280;54687;50.800;6.772;2023-04-03T03:09:44;61168.38;;;-144.06;56.66
11017;BME280;54687;50.800;6.772;2023-04-03T03:12:11;61143.22;;;-144.06;56.75
11017;BME280;54687;50.800;6.772;2023-04-03T03:14:39;61136.94;;;-144.06;56.59
11017;BME280;54687;50.800;6.772;2023-04-03T03:17:05;61126.44;;;-144.06;57.01
11017;BME280;54687;50.800;6.772;2023-04-03T03:19:32;61206.09;;;-144.06;57.22
11017;BME280;54687;50.800;6.772;2023-04-03T03:21:58;61147.41;;;-144.06;57.35
11017;BME280;54687;50.800;6.772;2023-04-03T03:24:25;61143.22;;;-144.06;57.21
11017;BME280;54687;50.800;6.772;2023-04-03T03:26:52;61155.81;;;-144.06;57.87
11017;BME280;54687;50.800;6.772;2023-04-03T03:29:18;61172.56;;;-144.06;57.46
11017;BME280;54687;50.800;6.772;2023-04-03T03:31:46;61172.56;;;-144.06;57.63
11017;BME280;54687;50.800;6.772;2023-04-03T03:34:13;61180.97;;;-144.06;57.68
11017;BME280;54687;50.800;6.772;2023-04-03T03:36:39;61160.00;;;-144.06;58.17
11017;BME280;54687;50.800;6.772;2023-04-03T03:39:06;61157.91;;;-144.06;58.28
11017;BME280;54687;50.800;6.772;2023-04-03T03:41:33;61168.38;;;-144.06;58.42
11017;BME280;54687;50.800;6.772;2023-04-03T03:43:59;61147.41;;;-144.06;58.37
11017;BME280;54687;50.800;6.772;2023-04-03T03:46:26;61151.59;;;-144.06;58.35
11017;BME280;54687;50.800;6.772;2023-04-03T03:48:54;61162.09;;;-144.06;58.57
11017;BME280;54687;50.800;6.772;2023-04-03T03:51:20;61134.84;;;-144.06;58.56
11017;BME280;54687;50.800;6.772;2023-04-03T03:53:47;61193.53;;;-144.06;58.35
11017;BME280;54687;50.800;6.772;2023-04-03T03:56:14;61155.81;;;-144.06;58.74
11017;BME280;54687;50.800;6.772;2023-04-03T03:58:40;61166.28;;;-144.06;58.35
11017;BME280;54687;50.800;6.772;2023-04-03T04:01:07;61143.22;;;-144.06;58.76
11017;BME280;54687;50.800;6.772;2023-04-03T04:03:34;61168.38;;;-144.06;59.23
11017;BME280;54687;50.800;6.772;2023-04-03T04:06:01;61166.28;;;-144.06;59.13
11017;BME280;54687;50.800;6.772;2023-04-03T04:08:28;61172.56;;;-144.06;59.57
11017;BME280;54687;50.800;6.772;2023-04-03T04:10:55;61189.34;;;-144.06;59.55
11017;BME280;54687;50.800;6.772;2023-04-03T04:13:21;61172.56;;;-144.06;59.30
11017;BME280;54687;50.800;6.772;2023-04-03T04:15:48;61176.75;;;-144.06;59.50
11017;BME280;54687;50.800;6.772;2023-04-03T04:18:14;61122.25;;;-144.06;59.15
11017;BME280;54687;50.800;6.772;2023-04-03T04:20:41;61141.13;;;-144.06;59.13
11017;BME280;54687;50.800;6.772;2023-04-03T04:23:09;61160.00;;;-144.06;59.23
11017;BME280;54687;50.800;6.772;2023-04-03T04:25:35;61147.41;;;-144.06;59.13
11017;BME280;54687;50.800;6.772;2023-04-03T04:28:02;61183.06;;;-144.06;59.27
11017;BME280;54687;50.800;6.772;2023-04-03T04:30:28;61172.56;;;-144.06;58.67
11017;BME280;54687;50.800;6.772;2023-04-03T04:32:55;61134.84;;;-144.06;58.70
11017;BME280;54687;50.800;6.772;2023-04-03T04:35:22;61168.38;;;-144.06;59.21
11017;BME280;54687;50.800;6.772;2023-04-03T04:37:49;61180.97;;;-144.06;58.93
11017;BME280;54687;50.800;6.772;2023-04-03T04:40:17;61164.19;;;-144.06;59.52
11017;BME280;54687;50.800;6.772;2023-04-03T04:42:44;61147.41;;;-144.06;59.00
11017;BME280;54687;50.800;6.772;2023-04-03T04:45:10;61155.81;;;-144.06;59.27
11017;BME280;54687;50.800;6.772;2023-04-03T04:47:37;61155.81;;;-144.06;59.41
11017;BME280;54687;50.800;6.772;2023-04-03T04:50:04;61162.09;;;-144.06;59.35
11017;BME280;54687;50.800;6.772;2023-04-03T04:52:31;61168.38;;;-144.06;59.28
11017;BME280;54687;50.800;6.772;2023-04-03T04:54:58;61147.41;;;-144.06;59.35
11017;BME280;54687;50.800;6.772;2023-04-03T04:57:26;61147.41;;;-144.06;59.50
11017;BME280;54687;50.800;6.772;2023-04-03T04:59:53;61130.66;;;-144.06;59.45
11017;BME280;54687;50.800;6.772;2023-04-03T05:02:19;61134.84;;;-144.06;59.14
11017;BME280;54687;50.800;6.772;2023-04-03T05:04:46;61141.13;;;-144.06;59.23
11017;BME280;54687;50.800;6.772;2023-04-03T05:07:12;61122.25;;;-144.06;58.97
11017;BME280;54687;50.800;6.772;2023-04-03T05:09:39;61143.22;;;-144.06;58.97
11017;BME280;54687;50.800;6.772;2023-04-03T05:12:07;61187.25;;;-144.06;58.84
11017;BME280;54687;50.800;6.772;2023-04-03T05:14:35;61185.16;;;-144.06;58.68
11017;BME280;54687;50.800;6.772;2023-04-03T05:17:02;61170.47;;;-144.06;58.74
11017;BME280;54687;50.800;6.772;2023-04-03T05:19:28;61130.66;;;-144.06;58.89
11017;BME280;54687;50.800;6.772;2023-04-03T05:21:55;61168.38;;;-144.06;58.88
11017;BME280;54687;50.800;6.772;2023-04-03T05:24:21;61143.22;;;-144.06;58.41
11017;BME280;54687;50.800;6.772;2023-04-03T05:26:48;61201.91;;;-144.06;58.80
11017;BME280;54687;50.800;6.772;2023-04-03T05:29:15;61170.47;;;-144.06;58.54
11017;BME280;54687;50.800;6.772;2023-04-03T05:31:43;61151.59;;;-144.06;58.42
11017;BME280;54687;50.800;6.772;2023-04-03T05:34:10;61199.81;;;-144.06;58.27
11017;BME280;54687;50.800;6.772;2023-04-03T05:36:37;61176.75;;;-144.06;57.71
11017;BME280;54687;50.800;6.772;2023-04-03T05:39:04;61092.91;;;-144.06;57.69
11017;BME280;54687;50.800;6.772;2023-04-03T05:41:31;61162.09;;;-144.06;57.27
11017;BME280;54687;50.800;6.772;2023-04-03T05:43:57;61168.38;;;-144.06;57.22
11017;BME280;54687;50.800;6.772;2023-04-03T05:46:24;61180.97;;;-144.06;56.74
11017;BME280;54687;50.800;6.772;2023-04-03T05:48:52;61134.84;;;-144.06;57.22
11017;BME280;54687;50.800;6.772;2023-04-03T05:51:21;61176.75;;;-144.06;56.29
11017;BME280;54687;50.800;6.772;2023-04-03T05:53:50;61141.13;;;-144.06;56.28
11017;BME280;54687;50.800;6.772;2023-04-03T05:56:18;61166.28;;;-144.06;56.50
11017;BME280;54687;50.800;6.772;2023-04-03T05:58:45;61145.31;;;-144.06;56.70
11017;BME280;54687;50.800;6.772;2023-04-03T06:01:11;61168.38;;;-144.06;56.28
11017;BME280;54687;50.800;6.772;2023-04-03T06:03:38;61143.22;;;-144.06;55.97
11017;BME280;54687;50.800;6.772;2023-04-03T06:06:07;61160.00;;;-144.06;55.87
11017;BME280;54687;50.800;6.772;2023-04-03T06:08:33;61151.59;;;-144.06;55.47
11017;BME280;54687;50.800;6.772;2023-04-03T06:11:01;61143.22;;;-144.06;55.58
11017;BME280;54687;50.800;6.772;2023-04-03T06:13:28;61151.59;;;-144.06;55.73
11017;BME280;54687;50.800;6.772;2023-04-03T06:15:54;61189.34;;;-144.06;55.72
11017;BME280;54687;50.800;6.772;2023-04-03T06:18:21;61206.09;;;-144.06;55.50
11017;BME280;54687;50.800;6.772;2023-04-03T06:20:48;61195.63;;;-144.06;55.66
11017;BME280;54687;50.800;6.772;2023-04-03T06:23:16;61147.41;;;-144.06;55.53
11017;BME280;54687;50.800;6.772;2023-04-03T06:25:43;61155.81;;;-144.06;55.24
11017;BME280;54687;50.800;6.772;2023-04-03T06:28:09;61180.97;;;-144.06;55.12
11017;BME280;54687;50.800;6.772;2023-04-03T06:30:36;61126.44;;;-144.06;54.85
11017;BME280;54687;50.800;6.772;2023-04-03T06:33:03;61160.00;;;-144.06;54.94
11017;BME280;54687;50.800;6.772;2023-04-03T06:35:30;61139.03;;;-144.06;54.76
11017;BME280;54687;50.800;6.772;2023-04-03T06:37:56;61172.56;;;-144.06;54.36
11017;BME280;54687;50.800;6.772;2023-04-03T06:40:25;61105.50;;;-144.06;53.92
11017;BME280;54687;50.800;6.772;2023-04-03T06:42:52;61139.03;;;-144.06;54.00
11017;BME280;54687;50.800;6.772;2023-04-03T06:45:19;61118.06;;;-144.06;53.21
11017;BME280;54687;50.800;6.772;2023-04-03T06:47:47;61126.44;;;-144.06;52.74
11017;BME280;54687;50.800;6.772;2023-04-03T06:50:13;61170.47;;;-144.06;52.14
11017;BME280;54687;50.800;6.772;2023-04-03T06:52:40;61145.31;;;-144.06;52.24
11017;BME280;54687;50.800;6.772;2023-04-03T06:55:08;61168.38;;;-144.06;51.99
11017;BME280;54687;50.800;6.772;2023-04-03T06:57:36;61143.22;;;-144.06;51.55
11017;BME280;54687;50.800;6.772;2023-04-03T07:00:05;61162.09;;;-144.06;51.33
11017;BME280;54687;50.800;6.772;2023-04-03T07:02:32;61180.97;;;-144.06;51.38
11017;BME280;54687;50.800;6.772;2023-04-03T07:04:59;61139.03;;;-144.06;50.60
11017;BME280;54687;50.800;6.772;2023-04-03T07:07:25;61113.88;;;-144.06;50.94
11017;BME280;54687;50.800;6.772;2023-04-03T07:09:53;61126.44;;;-144.06;50.94
11017;BME280;54687;50.800;6.772;2023-04-03T07:12:20;61134.84;;;-144.06;50.56
11017;BME280;54687;50.800;6.772;2023-04-03T07:14:48;61139.03;;;-144.06;50.54
11017;BME280;54687;50.800;6.772;2023-04-03T07:17:14;61151.59;;;-144.06;50.42
11017;BME280;54687;50.800;6.772;2023-04-03T07:19:41;61176.75;;;-144.06;49.78
11017;BME280;54687;50.800;6.772;2023-04-03T07:22:08;61160.00;;;-144.06;50.33
11017;BME280;54687;50.800;6.772;2023-04-03T07:24:36;61147.41;;;-144.06;50.13
11017;BME280;54687;50.800;6.772;2023-04-03T07:27:03;61153.69;;;-144.06;50.07
11017;BME280;54687;50.800;6.772;2023-04-03T07:29:31;61136.94;;;-144.06;50.17
11017;BME280;54687;50.800;6.772;2023-04-03T07:31:59;61147.41;;;-144.06;50.13
11017;BME280;54687;50.800;6.772;2023-04-03T07:34:26;61147.41;;;-144.06;49.82
11017;BME280;54687;50.800;6.772;2023-04-03T07:36:52;61139.03;;;-144.06;49.90
11017;BME280;54687;50.800;6.772;2023-04-03T07:39:19;61136.94;;;-144.06;49.59
11017;BME280;54687;50.800;6.772;2023-04-03T07:41:45;61157.91;;;-144.06;49.30
11017;BME280;54687;50.800;6.772;2023-04-03T07:44:12;61164.19;;;-144.06;49.07
11017;BME280;54687;50.800;6.772;2023-04-03T07:46:39;61136.94;;;-144.06;49.71
11017;BME280;54687;50.800;6.772;2023-04-03T07:49:07;61122.25;;;-144.06;49.78
11017;BME280;54687;50.800;6.772;2023-04-03T07:51:33;61090.81;;;-144.06;49.40
11017;BME280;54687;50.800;6.772;2023-04-03T07:54:01;61168.38;;;-144.06;49.03
11017;BME280;54687;50.800;6.772;2023-04-03T07:56:27;61147.41;;;-144.06;49.04
11017;BME280;54687;50.800;6.772;2023-04-03T07:58:54;61145.31;;;-144.06;49.07
11017;BME280;54687;50.800;6.772;2023-04-03T08:01:23;61143.22;;;-144.06;48.68
11017;BME280;54687;50.800;6.772;2023-04-03T08:03:50;61170.47;;;-144.06;48.94
11017;BME280;54687;50.800;6.772;2023-04-03T08:06:18;61153.69;;;-144.06;48.45
11017;BME280;54687;50.800;6.772;2023-04-03T08:08:44;61126.44;;;-144.06;48.12
11017;BME280;54687;50.800;6.772;2023-04-03T08:11:11;61143.22;;;-144.06;48.31
11017;BME280;54687;50.800;6.772;2023-04-03T08:13:38;61134.84;;;-144.06;47.94
11017;BME280;54687;50.800;6.772;2023-04-03T08:16:12;61126.44;;;-144.06;47.70
11017;BME280;54687;50.800;6.772;2023-04-03T08:18:39;61095.00;;;-144.06;48.12
11017;BME280;54687;50.800;6.772;2023-04-03T08:21:07;61084.53;;;-144.06;47.62
11017;BME280;54687;50.800;6.772;2023-04-03T08:23:35;61126.44;;;-144.06;47.25
11017;BME280;54687;50.800;6.772;2023-04-03T08:26:06;61122.25;;;-144.06;47.12
11017;BME280;54687;50.800;6.772;2023-04-03T08:28:33;61147.41;;;-144.06;46.94
11017;BME280;54687;50.800;6.772;2023-04-03T08:31:03;61095.00;;;-144.06;46.97
11017;BME280;54687;50.800;6.772;2023-04-03T08:33:31;61136.94;;;-144.06;46.48
11017;BME280;54687;50.800;6.772;2023-04-03T08:35:57;61099.19;;;-144.06;47.06
11017;BME280;54687;50.800;6.772;2023-04-03T08:38:24;61145.31;;;-144.06;46.89
11017;BME280;54687;50.800;6.772;2023-04-03T08:41:02;61126.44;;;-144.06;46.52
11017;BME280;54687;50.800;6.772;2023-04-03T08:43:37;61074.03;;;-144.06;46.76
11017;BME280;54687;50.800;6.772;2023-04-03T08:46:11;61099.19;;;-144.06;45.98
11017;BME280;54687;50.800;6.772;2023-04-03T08:48:42;61126.44;;;-144.06;45.51
11017;BME280;54687;50.800;6.772;2023-04-03T08:51:12;61113.88;;;-144.06;45.24
11017;BME280;54687;50.800;6.772;2023-04-03T08:53:43;61109.69;;;-144.06;44.86
11017;BME280;54687;50.800;6.772;2023-04-03T08:56:15;61141.13;;;-144.06;45.33
11017;BME280;54687;50.800;6.772;2023-04-03T08:58:48;61168.38;;;-144.06;45.18
11017;BME280;54687;50.800;6.772;2023-04-03T09:01:19;61097.09;;;-144.06;45.15
11017;BME280;54687;50.800;6.772;2023-04-03T09:03:47;61143.22;;;-144.06;44.76
11017;BME280;54687;50.800;6.772;2023-04-03T09:06:15;61101.28;;;-144.06;44.74
11017;BME280;54687;50.800;6.772;2023-04-03T09:08:45;61088.72;;;-144.06;44.56
11017;BME280;54687;50.800;6.772;2023-04-03T09:11:22;61160.00;;;-144.06;44.61
11017;BME280;54687;50.800;6.772;2023-04-03T09:13:56;61109.69;;;-144.06;44.93
11017;BME280;54687;50.800;6.772;2023-04-03T09:16:47;61090.81;;;-144.06;44.20
11017;BME280;54687;50.800;6.772;2023-04-03T09:19:24;61109.69;;;-144.06;44.46
11017;BME280;54687;50.800;6.772;2023-04-03T09:21:58;61109.69;;;-144.06;44.43
11017;BME280;54687;50.800;6.772;2023-04-03T09:24:28;61113.88;;;-144.06;44.34
11017;BME280;54687;50.800;6.772;2023-04-03T09:27:01;61122.25;;;-144.06;44.22
11017;BME280;54687;50.800;6.772;2023-04-03T09:29:30;61122.25;;;-144.06;44.17
11017;BME280;54687;50.800;6.772;2023-04-03T09:31:58;61134.84;;;-144.06;43.98
11017;BME280;54687;50.800;6.772;2023-04-03T09:34:30;61086.63;;;-144.06;43.95
11017;BME280;54687;50.800;6.772;2023-04-03T09:37:00;61101.28;;;-144.06;43.68
11017;BME280;54687;50.800;6.772;2023-04-03T09:39:49;61080.34;;;-144.06;42.95
11017;BME280;54687;50.800;6.772;2023-04-03T09:42:20;61113.88;;;-144.06;43.30
11017;BME280;54687;50.800;6.772;2023-04-03T09:44:53;61124.34;;;-144.06;43.15
11017;BME280;54687;50.800;6.772;2023-04-03T09:47:24;61126.44;;;-144.06;42.85
11017;BME280;54687;50.800;6.772;2023-04-03T09:50:10;61092.91;;;-144.06;42.60
11017;BME280;54687;50.800;6.772;2023-04-03T09:52:46;61051.00;;;-144.06;42.45
11017;BME280;54687;50.800;6.772;2023-04-03T09:55:15;61061.47;;;-144.06;42.11
11017;BME280;54687;50.800;6.772;2023-04-03T09:57:44;61113.88;;;-144.06;41.27
11017;BME280;54687;50.800;6.772;2023-04-03T10:00:23;61088.72;;;-144.06;40.75
11017;BME280;54687;50.800;6.772;2023-04-03T10:02:53;61090.81;;;-144.06;40.41
11017;BME280;54687;50.800;6.772;2023-04-03T10:05:31;61122.25;;;-144.06;40.00
11017;BME280;54687;50.800;6.772;2023-04-03T10:08:17;61126.44;;;-144.06;40.67
11017;BME280;54687;50.800;6.772;2023-04-03T10:10:47;61107.59;;;-144.06;40.15
11017;BME280;54687;50.800;6.772;2023-04-03T10:13:18;61111.78;;;-144.06;40.66
11017;BME280;54687;50.800;6.772;2023-04-03T10:15:51;61071.94;;;-144.06;40.16
11017;BME280;54687;50.800;6.772;2023-04-03T10:18:29;61065.66;;;-144.06;40.35
11017;BME280;54687;50.800;6.772;2023-04-03T10:21:02;61097.09;;;-144.06;40.25
11017;BME280;54687;50.800;6.772;2023-04-03T10:23:40;61122.25;;;-144.06;40.59
11017;BME280;54687;50.800;6.772;2023-04-03T10:26:17;61143.22;;;-144.06;40.69
11017;BME280;54687;50.800;6.772;2023-04-03T10:28:56;61130.66;;;-144.06;40.81
11017;BME280;54687;50.800;6.772;2023-04-03T10:31:29;61084.53;;;-144.06;41.58
11017;BME280;54687;50.800;6.772;2023-04-03T10:34:03;61071.94;;;-144.06;41.07
11017;BME280;54687;50.800;6.772;2023-04-03T10:36:38;61067.75;;;-144.06;40.74
11017;BME280;54687;50.800;6.772;2023-04-03T10:39:21;61109.69;;;-144.06;40.44
11017;BME280;54687;50.800;6.772;2023-04-03T10:42:01;61097.09;;;-144.06;39.18
11017;BME280;54687;50.800;6.772;2023-04-03T10:44:38;61067.75;;;-144.06;37.80
11017;BME280;54687;50.800;6.772;2023-04-03T10:47:12;61071.94;;;-144.06;37.98
11017;BME280;54687;50.800;6.772;2023-04-03T10:49:49;61097.09;;;-144.06;37.43
11017;BME280;54687;50.800;6.772;2023-04-03T10:52:22;61080.34;;;-144.06;37.21
11017;BME280;54687;50.800;6.772;2023-04-03T10:55:01;61109.69;;;-144.06;37.53
11017;BME280;54687;50.800;6.772;2023-04-03T10:57:31;61101.28;;;-144.06;37.51
11017;BME280;54687;50.800;6.772;2023-04-03T11:00:03;61088.72;;;-144.06;36.42
11017;BME280;54687;50.800;6.772;2023-04-03T11:02:32;61101.28;;;-144.06;36.40
11017;BME280;54687;50.800;6.772;2023-04-03T11:05:01;61067.75;;;-144.06;36.68
11017;BME280;54687;50.800;6.772;2023-04-03T11:07:33;61042.59;;;-144.06;37.02
11017;BME280;54687;50.800;6.772;2023-04-03T11:10:09;61055.19;;;-144.06;36.74
11017;BME280;54687;50.800;6.772;2023-04-03T11:12:43;61153.69;;;-144.06;36.01
11017;BME280;54687;50.800;6.772;2023-04-03T11:15:15;61067.75;;;-144.06;36.47
11017;BME280;54687;50.800;6.772;2023-04-03T11:17:46;61067.75;;;-144.06;37.19
11017;BME280;54687;50.800;6.772;2023-04-03T11:20:18;61067.75;;;-144.06;36.16
11017;BME280;54687;50.800;6.772;2023-04-03T11:22:48;61080.34;;;-144.06;35.40
11017;BME280;54687;50.800;6.772;2023-04-03T11:25:20;61076.13;;;-144.06;35.50
11017;BME280;54687;50.800;6.772;2023-04-03T11:27:51;61088.72;;;-144.06;35.77
11017;BME280;54687;50.800;6.772;2023-04-03T11:30:23;61101.28;;;-144.06;35.34
11017;BME280;54687;50.800;6.772;2023-04-03T11:33:05;61071.94;;;-144.06;36.24
11017;BME280;54687;50.800;6.772;2023-04-03T11:35:36;61017.44;;;-144.06;35.81
11017;BME280;54687;50.800;6.772;2023-04-03T11:38:04;61042.59;;;-144.06;35.47
11017;BME280;54687;50.800;6.772;2023-04-03T11:40:33;61067.75;;;-144.06;35.37
11017;BME280;54687;50.800;6.772;2023-04-03T11:43:07;61059.38;;;-144.06;34.66
11017;BME280;54687;50.800;6.772;2023-04-03T11:45:38;61057.28;;;-144.06;34.34
11017;BME280;54687;50.800;6.772;2023-04-03T11:48:48;61051.00;;;-144.06;34.44
11017;BME280;54687;50.800;6.772;2023-04-03T11:51:40;61059.38;;;-144.06;34.15
11017;BME280;54687;50.800;6.772;2023-04-03T11:54:45;61076.13;;;-144.06;34.09
11017;BME280;54687;50.800;6.772;2023-04-03T11:57:50;61051.00;;;-144.06;34.47
11017;BME280;54687;50.800;6.772;2023-04-03T12:00:51;61057.28;;;-144.06;34.14
11017;BME280;54687;50.800;6.772;2023-04-03T12:12:55;61097.09;;;-144.06;34.06
11017;BME280;54687;50.800;6.772;2023-04-03T12:18:56;61080.34;;;-144.06;34.33
11017;BME280;54687;50.800;6.772;2023-04-03T12:24:32;61034.22;;;-144.06;33.55
11017;BME280;54687;50.800;6.772;2023-04-03T12:27:08;61046.78;;;-144.06;33.58
11017;BME280;54687;50.800;6.772;2023-04-03T12:29:39;61042.59;;;-144.06;32.23
11017;BME280;54687;50.800;6.772;2023-04-03T12:32:18;61051.00;;;-144.06;32.18
11017;BME280;54687;50.800;6.772;2023-04-03T12:35:00;61051.00;;;-144.06;33.18
11017;BME280;54687;50.800;6.772;2023-04-03T12:37:40;61046.78;;;-144.06;32.97
11017;BME280;54687;50.800;6.772;2023-04-03T12:40:16;61051.00;;;-144.06;32.00
11017;BME280;54687;50.800;6.772;2023-04-03T12:43:11;61065.66;;;-144.06;32.27
11017;BME280;54687;50.800;6.772;2023-04-03T12:45:47;61071.94;;;-144.06;32.37
11017;BME280;54687;50.800;6.772;2023-04-03T12:48:17;61036.31;;;-144.06;32.61
11017;BME280;54687;50.800;6.772;2023-04-03T12:50:47;61042.59;;;-144.06;31.92
11017;BME280;54687;50.800;6.772;2023-04-03T12:53:16;61040.50;;;-144.06;32.65
11017;BME280;54687;50.800;6.772;2023-04-03T12:55:44;61055.19;;;-144.06;32.71
11017;BME280;54687;50.800;6.772;2023-04-03T12:58:16;61076.13;;;-144.06;32.63
11017;BME280;54687;50.800;6.772;2023-04-03T13:00:43;61053.09;;;-144.06;32.92
11017;BME280;54687;50.800;6.772;2023-04-03T13:03:22;61000.69;;;-144.06;31.99
11017;BME280;54687;50.800;6.772;2023-04-03T13:05:51;61036.31;;;-144.06;31.17
11017;BME280;54687;50.800;6.772;2023-04-03T13:08:19;61038.41;;;-144.06;31.17
11017;BME280;54687;50.800;6.772;2023-04-03T13:10:51;61051.00;;;-144.06;31.30
11017;BME280;54687;50.800;6.772;2023-04-03T13:13:19;61048.88;;;-144.06;31.02